Time;durP1;ratioP1;P1;durP2;ratioP2;P2;SDS_P1;SDS_P2;PMS_P1;PMS_P2;Temp;Humidity;BMP_temperature;BMP_pressure;BME280_temperature;BME280_humidity;BME280_pressure;Samples;Min_cycle;Max_cycle;Signal;HPM_P1;HPM_P2
2024/01/30 00:04:12;;;;;;;78.13;47.15;;;0.70;99.90;;;;;;4665114;30;20039;-77
2024/01/30 00:07:18;;;;;;;77.13;45.40;;;0.70;99.90;;;;;;4685308;30;20138;-76
2024/01/30 00:10:27;;;;;;;77.65;42.72;;;0.70;99.90;;;;;;4688210;30;20053;-77
2024/01/30 00:13:36;;;;;;;69.55;41.53;;;0.80;99.90;;;;;;4699446;30;20041;-76
2024/01/30 00:16:52;;;;;;;73.70;41.80;;;0.80;99.90;;;;;;4702631;30;20050;-78
2024/01/30 00:19:53;;;;;;;73.43;41.60;;;0.80;99.90;;;;;;4737151;30;20130;-78
2024/01/30 00:23:21;;;;;;;71.65;42.53;;;0.80;99.90;;;;;;4751392;30;20121;-76
2024/01/30 00:25:53;;;;;;;84.32;44.40;;;0.70;99.90;;;;;;4736264;30;20036;-77
2024/01/30 00:29:10;;;;;;;80.95;46.08;;;0.70;99.90;;;;;;4773454;30;20108;-77
2024/01/30 00:35:45;;;;;;;81.63;52.53;;;0.70;99.90;;;;;;4716839;30;20131;-78
2024/01/30 00:38:34;;;;;;;92.43;63.72;;;0.80;99.90;;;;;;4734259;30;20160;-79
2024/01/30 00:41:47;;;;;;;106.05;65.80;;;0.70;99.90;;;;;;4809977;29;20064;-77
2024/01/30 00:44:16;;;;;;;93.18;63.88;;;0.70;99.90;;;;;;4775162;29;20131;-76
2024/01/30 00:46:45;;;;;;;106.40;68.50;;;0.70;99.90;;;;;;4787745;29;20035;-77
2024/01/30 00:49:22;;;;;;;98.18;63.05;;;0.70;99.90;;;;;;4792928;29;20058;-77
2024/01/30 00:51:58;;;;;;;102.13;61.85;;;0.70;99.90;;;;;;4787542;29;20074;-77
2024/01/30 00:58:29;;;;;;;104.38;65.03;;;0.70;99.90;;;;;;4768637;30;20067;-77
2024/01/30 01:01:12;;;;;;;109.40;65.28;;;0.70;99.90;;;;;;4768509;30;20051;-78
2024/01/30 01:03:43;;;;;;;99.30;68.60;;;0.60;99.90;;;;;;4818259;29;20051;-77
2024/01/30 01:06:37;;;;;;;97.32;60.28;;;0.50;99.90;;;;;;4863449;29;20037;-77
2024/01/30 01:10:05;;;;;;;89.88;56.97;;;0.50;99.90;;;;;;4850683;29;20057;-77
2024/01/30 01:12:34;;;;;;;83.90;53.65;;;0.50;99.90;;;;;;4829404;29;20045;-76
2024/01/30 01:15:00;;;;;;;81.25;55.15;;;0.50;99.90;;;;;;4859812;29;20410;-77
2024/01/30 01:18:10;;;;;;;77.05;49.92;;;0.40;99.90;;;;;;4859956;29;20041;-76
2024/01/30 01:20:39;;;;;;;79.88;51.03;;;0.40;99.90;;;;;;4818996;29;20609;-77
2024/01/30 01:23:33;;;;;;;80.78;49.05;;;0.40;99.90;;;;;;4841467;29;20041;-77
2024/01/30 01:26:43;;;;;;;67.35;47.72;;;0.30;99.90;;;;;;4825084;29;20038;-77
2024/01/30 01:29:49;;;;;;;78.35;50.22;;;0.30;99.90;;;;;;4812019;29;20080;-76
2024/01/30 01:32:17;;;;;;;71.53;47.17;;;0.20;99.90;;;;;;4810748;29;20108;-76
2024/01/30 01:34:56;;;;;;;58.30;42.97;;;0.00;99.90;;;;;;4857204;29;20061;-76
2024/01/30 01:37:31;;;;;;;58.95;42.75;;;0.00;99.90;;;;;;4829905;29;20033;-76
2024/01/30 01:39:57;;;;;;;65.32;43.38;;;0.00;99.90;;;;;;4859648;29;20033;-77
2024/01/30 01:42:23;;;;;;;60.35;41.63;;;0.00;99.90;;;;;;4859150;29;20073;-77
2024/01/30 01:44:56;;;;;;;57.00;37.95;;;0.00;99.90;;;;;;4859184;29;20133;-77
2024/01/30 01:47:25;;;;;;;55.22;37.90;;;0.00;99.90;;;;;;4828362;29;20044;-77
2024/01/30 01:49:54;;;;;;;54.15;35.55;;;0.00;99.90;;;;;;4859377;29;20406;-76
2024/01/30 01:52:20;;;;;;;51.60;37.05;;;-0.10;99.90;;;;;;4859055;29;20030;-77
2024/01/30 01:54:46;;;;;;;51.35;32.95;;;-0.20;99.90;;;;;;4858257;29;20120;-77
2024/01/30 01:57:17;;;;;;;53.72;36.97;;;-0.20;99.90;;;;;;4892368;29;20447;-76
2024/01/30 01:59:50;;;;;;;61.28;38.67;;;-0.10;99.90;;;;;;4948997;29;20099;-76
2024/01/30 02:02:22;;;;;;;58.80;38.85;;;-0.10;99.90;;;;;;4934777;29;20036;-76
2024/01/30 02:04:48;;;;;;;59.25;40.90;;;-0.10;99.90;;;;;;4949017;29;20467;-76
2024/01/30 02:07:36;;;;;;;55.83;38.92;;;-0.10;99.90;;;;;;4955414;28;20050;-77
2024/01/30 02:10:03;;;;;;;56.78;37.28;;;-0.10;99.90;;;;;;4935965;29;20043;-77
2024/01/30 02:12:38;;;;;;;54.50;36.28;;;-0.10;99.90;;;;;;4953172;28;20039;-77
2024/01/30 02:15:17;;;;;;;47.03;30.98;;;0.00;99.90;;;;;;4950925;28;20055;-76
2024/01/30 02:18:13;;;;;;;47.15;30.98;;;-0.10;99.90;;;;;;4934800;29;20463;-77
2024/01/30 02:20:46;;;;;;;45.80;29.88;;;-0.10;99.90;;;;;;4952883;28;20053;-77
2024/01/30 02:23:27;;;;;;;61.45;39.65;;;0.00;99.90;;;;;;4895850;29;20048;-78
2024/01/30 02:26:07;;;;;;;49.05;33.03;;;0.00;99.90;;;;;;4895162;29;20051;-77
2024/01/30 02:28:38;;;;;;;42.60;28.05;;;0.00;99.90;;;;;;4894748;29;20041;-78
2024/01/30 02:31:10;;;;;;;40.33;25.35;;;0.00;99.90;;;;;;4895849;29;20043;-78
2024/01/30 02:33:36;;;;;;;43.38;27.90;;;0.00;99.90;;;;;;4880352;29;20119;-78
2024/01/30 02:36:02;;;;;;;49.17;32.42;;;0.00;99.90;;;;;;4895426;29;20120;-76
2024/01/30 02:38:28;;;;;;;51.45;33.67;;;0.00;99.90;;;;;;4895815;29;20033;-77
2024/01/30 02:41:01;;;;;;;46.13;30.40;;;0.00;99.90;;;;;;4903994;29;20036;-76
2024/01/30 02:43:51;;;;;;;;;;;;;;;;;;;;;
2024/01/30 02:46:43;;;;;;;49.33;31.50;;;-0.10;99.90;;;;;;4907888;29;20407;-78
2024/01/30 02:49:18;;;;;;;46.40;30.00;;;-0.10;99.90;;;;;;4914496;29;20039;-77
2024/01/30 02:51:44;;;;;;;47.58;30.20;;;-0.20;99.90;;;;;;4883024;29;20044;-78
2024/01/30 02:54:10;;;;;;;45.42;29.60;;;-0.20;99.90;;;;;;4914411;29;20047;-76
2024/01/30 02:57:22;;;;;;;68.55;48.58;;;-0.20;99.90;;;;;;4910172;29;20531;-77
2024/01/30 03:00:10;;;;;;;61.17;41.92;;;-0.20;99.90;;;;;;4902901;29;20044;-77
2024/01/30 03:02:57;;;;;;;49.05;29.45;;;-0.40;99.90;;;;;;4940390;29;20475;-78
2024/01/30 03:05:23;;;;;;;54.30;34.15;;;-0.40;99.90;;;;;;4953105;29;20038;-77
2024/01/30 03:07:58;;;;;;;50.78;33.08;;;-0.50;99.90;;;;;;4954664;29;20019;-75
2024/01/30 03:14:18;;;;;;;53.50;34.17;;;-0.60;99.90;;;;;;4857764;29;20060;-77
2024/01/30 03:16:44;;;;;;;48.17;32.58;;;-0.80;99.90;;;;;;4847229;29;20039;-77
2024/01/30 03:19:28;;;;;;;55.05;36.80;;;-0.70;99.90;;;;;;4857709;29;20057;-80
2024/01/30 03:21:59;;;;;;;53.58;39.40;;;-0.80;99.90;;;;;;4858376;29;20033;-77
2024/01/30 03:24:26;;;;;;;60.38;39.80;;;-0.90;99.90;;;;;;4857966;29;20049;-77
2024/01/30 03:27:32;;;;;;;60.80;38.17;;;-0.90;99.90;;;;;;4860103;29;20094;-76
2024/01/30 03:30:21;;;;;;;82.72;48.42;;;-0.90;99.90;;;;;;4847273;29;20041;-78
2024/01/30 03:33:28;;;;;;;89.70;49.65;;;-0.90;99.90;;;;;;4861460;29;20040;-76
2024/01/30 03:36:06;;;;;;;78.85;47.10;;;-0.90;99.90;;;;;;4842337;29;20041;-77
2024/01/30 03:38:35;;;;;;;108.82;62.10;;;-0.90;99.90;;;;;;4854358;29;20053;-77
2024/01/30 03:41:01;;;;;;;81.05;49.08;;;-0.90;99.90;;;;;;4845810;29;20045;-78
2024/01/30 03:43:27;;;;;;;73.10;47.17;;;-0.90;99.90;;;;;;4861596;29;20125;-77
2024/01/30 03:46:18;;;;;;;66.40;42.40;;;-0.90;99.90;;;;;;4892614;29;20172;-77
2024/01/30 03:51:53;;;;;;;66.75;39.22;;;-0.70;99.90;;;;;;4956822;29;20063;-77
2024/01/30 03:54:19;;;;;;;60.35;40.17;;;-0.70;99.90;;;;;;4961547;29;20026;-78
2024/01/30 03:57:55;;;;;;;65.25;40.85;;;-0.60;99.90;;;;;;4964447;28;20054;-77
2024/01/30 04:00:56;;;;;;;55.45;39.80;;;-0.60;99.90;;;;;;4954681;28;20141;-76
2024/01/30 04:04:07;;;;;;;68.82;42.20;;;-0.60;99.90;;;;;;4957901;28;20537;-77
2024/01/30 04:06:38;;;;;;;64.65;41.88;;;-0.60;99.90;;;;;;4972351;28;20038;-76
2024/01/30 04:09:11;;;;;;;;;;;-0.60;99.90;;;;;;4927642;28;20038;-76
2024/01/30 04:11:47;;;;;;;82.97;52.72;;;-0.70;99.90;;;;;;4963738;28;19910;-77
2024/01/30 04:14:15;;;;;;;68.72;46.33;;;-0.80;99.90;;;;;;4976515;28;20042;-77
2024/01/30 04:16:43;;;;;;;70.78;43.88;;;-0.70;99.90;;;;;;4935121;29;20023;-76
2024/01/30 04:19:11;;;;;;;64.35;41.72;;;-0.70;99.90;;;;;;4939892;28;20038;-77
2024/01/30 04:21:45;;;;;;;65.97;41.80;;;-0.70;99.90;;;;;;4970812;28;20089;-76
2024/01/30 04:24:20;;;;;;;69.72;44.40;;;-0.70;99.90;;;;;;4980530;28;20027;-76
2024/01/30 04:26:51;;;;;;;75.25;47.30;;;-0.60;99.90;;;;;;4975805;28;20026;-78
2024/01/30 04:29:22;;;;;;;79.30;48.05;;;-0.50;99.90;;;;;;4976354;28;20066;-78
2024/01/30 04:31:53;;;;;;;74.32;46.05;;;-0.50;99.90;;;;;;4975819;28;20034;-76
2024/01/30 04:34:26;;;;;;;66.47;44.13;;;-0.50;99.90;;;;;;4960627;28;20034;-77
2024/01/30 04:36:59;;;;;;;78.22;48.22;;;-0.50;99.90;;;;;;4976244;28;20041;-78
2024/01/30 04:39:32;;;;;;;70.57;44.78;;;-0.50;99.90;;;;;;4935379;29;20090;-78
2024/01/30 04:42:06;;;;;;;69.78;45.00;;;-0.50;99.90;;;;;;4932487;28;20059;-80
2024/01/30 04:44:42;;;;;;;78.82;52.63;;;-0.50;99.90;;;;;;4971168;28;20035;-78
2024/01/30 04:47:11;;;;;;;72.88;49.70;;;-0.50;99.90;;;;;;4969251;28;20023;-78
2024/01/30 04:49:40;;;;;;;80.60;50.78;;;-0.50;99.90;;;;;;4975776;28;20045;-77
2024/01/30 04:52:07;;;;;;;74.05;46.47;;;-0.30;99.90;;;;;;4965342;28;20066;-78
2024/01/30 04:54:34;;;;;;;73.50;47.67;;;-0.30;99.90;;;;;;4963428;28;20022;-78
2024/01/30 04:57:09;;;;;;;76.72;49.08;;;-0.30;99.90;;;;;;4962477;28;20114;-78
2024/01/30 04:59:36;;;;;;;65.50;45.17;;;-0.30;99.90;;;;;;4975814;28;20123;-78
2024/01/30 05:02:11;;;;;;;72.28;46.88;;;-0.30;99.90;;;;;;4971159;28;21364;-78
2024/01/30 05:04:37;;;;;;;78.28;45.35;;;-0.30;99.90;;;;;;4975881;28;20037;-79
2024/01/30 05:07:03;;;;;;;73.43;47.83;;;-0.30;99.90;;;;;;4974012;28;20019;-78
2024/01/30 05:09:43;;;;;;;81.97;52.38;;;-0.40;99.90;;;;;;4975524;28;20046;-78
2024/01/30 05:12:35;;;;;;;74.25;49.42;;;-0.50;99.90;;;;;;4942056;29;20035;-78
2024/01/30 05:15:01;;;;;;;78.95;52.63;;;-0.50;99.90;;;;;;4965297;28;20063;-78
2024/01/30 05:17:39;;;;;;;97.65;61.15;;;-0.60;99.90;;;;;;4943052;28;20070;-77
2024/01/30 05:20:06;;;;;;;103.60;63.45;;;-0.60;99.90;;;;;;4975271;28;20029;-77
2024/01/30 05:22:51;;;;;;;105.57;68.97;;;-0.60;99.90;;;;;;4975219;28;20382;-77
2024/01/30 05:25:16;;;;;;;94.90;65.13;;;-0.70;99.90;;;;;;4974996;28;20034;-77
2024/01/30 05:27:42;;;;;;;96.60;63.83;;;-0.70;99.90;;;;;;4971069;28;20459;-78
2024/01/30 05:30:09;;;;;;;80.80;55.97;;;-0.70;99.90;;;;;;4955940;28;20035;-77
2024/01/30 05:33:18;;;;;;;;;;;;;;;;;;;;;
2024/01/30 05:36:17;;;;;;;91.80;58.90;;;-0.70;99.90;;;;;;4958840;28;20039;-75
2024/01/30 05:38:55;;;;;;;85.55;57.28;;;-0.60;99.90;;;;;;4973374;28;20030;-74
2024/01/30 05:41:21;;;;;;;81.97;51.67;;;-0.60;99.90;;;;;;4916673;29;20036;-75
2024/01/30 05:43:50;;;;;;;92.47;56.47;;;-0.60;99.90;;;;;;4934540;29;20388;-76
2024/01/30 05:46:15;;;;;;;88.10;54.53;;;-0.60;99.90;;;;;;4902759;29;20047;-76
2024/01/30 05:48:50;;;;;;;97.32;54.95;;;-0.60;99.90;;;;;;4917624;29;20044;-75
2024/01/30 05:51:23;;;;;;;81.30;52.85;;;-0.60;99.90;;;;;;4928157;29;20036;-75
2024/01/30 05:53:59;;;;;;;90.40;56.15;;;-0.60;99.90;;;;;;4926897;29;20044;-75
2024/01/30 05:56:30;;;;;;;110.55;69.07;;;-0.60;99.90;;;;;;4934198;29;20059;-75
2024/01/30 05:58:59;;;;;;;98.07;63.78;;;-0.60;99.90;;;;;;4934030;29;20060;-75
2024/01/30 06:01:30;;;;;;;97.30;60.20;;;-0.70;99.90;;;;;;4902555;29;20043;-76
2024/01/30 06:03:58;;;;;;;96.57;57.47;;;-0.60;99.90;;;;;;4902517;29;20122;-76
2024/01/30 06:06:27;;;;;;;99.55;63.35;;;-0.60;99.90;;;;;;4930271;28;20483;-76
2024/01/30 06:08:55;;;;;;;102.68;66.30;;;-0.60;99.90;;;;;;4974506;28;20027;-75
2024/01/30 06:11:23;;;;;;;104.18;68.20;;;-0.60;99.90;;;;;;4966792;28;20079;-75
2024/01/30 06:13:49;;;;;;;97.15;64.95;;;-0.60;99.90;;;;;;4971106;28;20038;-75
2024/01/30 06:16:15;;;;;;;95.85;61.55;;;-0.60;99.90;;;;;;4975057;28;20023;-76
2024/01/30 06:18:49;;;;;;;108.20;69.10;;;-0.60;99.90;;;;;;4957381;28;20502;-76
2024/01/30 06:21:18;;;;;;;100.13;61.78;;;-0.50;99.90;;;;;;4940019;28;20031;-74
2024/01/30 06:23:49;;;;;;;105.57;70.32;;;-0.50;99.90;;;;;;4933238;28;20027;-75
2024/01/30 06:26:17;;;;;;;121.18;74.30;;;-0.40;99.90;;;;;;4941047;28;20489;-78
2024/01/30 06:28:44;;;;;;;131.90;80.18;;;-0.30;99.90;;;;;;4974635;28;20031;-75
2024/01/30 06:31:18;;;;;;;106.80;64.90;;;-0.30;99.90;;;;;;4955042;28;20050;-75
2024/01/30 06:33:50;;;;;;;92.95;58.33;;;-0.20;99.90;;;;;;4974192;28;20046;-75
2024/01/30 06:36:18;;;;;;;92.70;61.70;;;-0.20;99.90;;;;;;4974403;28;20031;-76
2024/01/30 06:39:07;;;;;;;87.72;59.58;;;-0.20;99.90;;;;;;4941045;28;20053;-75
2024/01/30 06:41:46;;;;;;;91.50;63.33;;;-0.10;99.90;;;;;;4963418;28;20495;-77
2024/01/30 06:44:31;;;;;;;102.63;67.55;;;0.00;99.90;;;;;;4974300;28;20027;-75
2024/01/30 06:47:02;;;;;;;119.03;81.97;;;0.00;99.90;;;;;;4974235;28;20055;-75
2024/01/30 06:49:35;;;;;;;117.18;75.18;;;0.10;99.90;;;;;;4941417;28;20475;-74
2024/01/30 06:52:01;;;;;;;90.93;60.05;;;0.20;99.90;;;;;;4940958;28;20034;-75
2024/01/30 06:54:27;;;;;;;96.40;58.78;;;0.30;99.90;;;;;;4967549;28;20082;-75
2024/01/30 06:56:56;;;;;;;89.10;58.47;;;0.40;99.90;;;;;;4972057;28;20035;-75
2024/01/30 06:59:22;;;;;;;106.43;62.33;;;0.40;99.90;;;;;;4974641;28;20050;-74
2024/01/30 07:01:57;;;;;;;103.05;66.07;;;0.50;99.90;;;;;;4976016;28;20045;-75
2024/01/30 07:04:46;;;;;;;114.63;70.90;;;0.60;99.90;;;;;;4945033;28;20105;-75
2024/01/30 07:07:18;;;;;;;112.70;71.78;;;0.70;99.90;;;;;;4967369;28;20513;-76
2024/01/30 07:09:44;;;;;;;123.05;73.82;;;0.70;99.90;;;;;;4976067;28;20529;-75
2024/01/30 07:12:10;;;;;;;119.47;78.35;;;0.70;99.90;;;;;;4944727;28;20046;-75
2024/01/30 07:14:38;;;;;;;128.40;80.03;;;0.90;99.90;;;;;;4960698;28;20098;-75
2024/01/30 07:17:04;;;;;;;119.07;74.43;;;1.00;99.90;;;;;;4944877;28;20779;-75
2024/01/30 07:19:30;;;;;;;98.30;62.58;;;1.10;99.90;;;;;;4977574;28;20041;-77
2024/01/30 07:21:59;;;;;;;100.05;62.55;;;1.20;99.90;;;;;;4944181;28;20545;-76
2024/01/30 07:24:25;;;;;;;108.60;67.03;;;1.20;99.90;;;;;;4976576;28;20049;-76
2024/01/30 07:26:51;;;;;;;95.25;63.22;;;1.20;99.90;;;;;;4944910;28;20031;-76
2024/01/30 07:29:20;;;;;;;103.68;63.85;;;1.30;99.90;;;;;;4977599;28;20497;-76
2024/01/30 07:31:48;;;;;;;105.70;67.88;;;1.50;99.90;;;;;;4976320;28;20027;-76
2024/01/30 07:34:16;;;;;;;118.80;69.88;;;1.60;99.90;;;;;;4977009;28;20486;-76
2024/01/30 07:36:42;;;;;;;95.63;59.65;;;1.70;99.90;;;;;;4977352;28;20059;-77
2024/01/30 07:39:13;;;;;;;99.45;63.78;;;1.70;99.90;;;;;;4977559;28;20037;-76
2024/01/30 07:41:41;;;;;;;81.60;55.92;;;1.60;99.90;;;;;;4977142;28;20470;-74
2024/01/30 07:44:09;;;;;;;84.65;55.17;;;1.80;99.90;;;;;;4943412;28;20023;-78
2024/01/30 07:46:38;;;;;;;77.78;50.65;;;1.90;99.90;;;;;;4977335;28;20057;-79
2024/01/30 07:49:04;;;;;;;81.13;51.08;;;1.80;99.90;;;;;;4989580;28;20027;-76
2024/01/30 07:51:31;;;;;;;75.35;50.65;;;1.70;99.90;;;;;;4948343;29;20030;-76
2024/01/30 07:54:02;;;;;;;72.60;46.28;;;1.90;99.90;;;;;;4974900;28;20027;-76
2024/01/30 07:56:28;;;;;;;66.93;44.60;;;1.90;99.90;;;;;;4959863;28;20041;-76
2024/01/30 07:58:54;;;;;;;67.65;43.92;;;1.90;99.90;;;;;;4976799;28;20390;-78
2024/01/30 08:01:33;;;;;;;72.20;43.38;;;1.90;99.90;;;;;;4976752;28;20106;-77
2024/01/30 08:04:12;;;;;;;69.90;45.25;;;2.00;99.90;;;;;;4974983;28;20023;-77
2024/01/30 08:06:40;;;;;;;68.05;45.47;;;2.00;99.90;;;;;;4976568;28;20474;-76
2024/01/30 08:09:13;;;;;;;68.18;44.90;;;2.10;99.90;;;;;;4943478;28;20034;-76
2024/01/30 08:11:39;;;;;;;72.90;46.33;;;1.80;99.90;;;;;;4942334;28;20046;-76
2024/01/30 08:14:08;;;;;;;70.68;42.10;;;2.00;99.90;;;;;;4976878;28;20022;-76
2024/01/30 08:16:33;;;;;;;65.10;43.03;;;2.30;99.90;;;;;;4930754;28;20018;-77
2024/01/30 08:19:08;;;;;;;72.63;42.83;;;2.40;99.90;;;;;;4976533;28;20034;-76
2024/01/30 08:21:36;;;;;;;69.55;46.85;;;2.50;99.90;;;;;;4976438;28;20035;-76
2024/01/30 08:24:11;;;;;;;75.88;47.50;;;2.20;99.90;;;;;;4976520;28;20022;-77
2024/01/30 08:26:48;;;;;;;76.47;48.22;;;2.50;99.90;;;;;;4965772;28;20379;-76
2024/01/30 08:29:22;;;;;;;71.32;46.33;;;2.10;99.90;;;;;;4976135;28;20030;-74
2024/01/30 08:31:51;;;;;;;78.40;47.65;;;2.10;99.90;;;;;;4958916;28;20148;-76
2024/01/30 08:34:17;;;;;;;75.95;52.03;;;2.20;99.90;;;;;;4942940;28;20506;-76
2024/01/30 08:36:43;;;;;;;71.88;47.08;;;2.30;99.90;;;;;;4974987;28;20058;-76
2024/01/30 08:39:14;;;;;;;75.88;49.53;;;2.40;99.90;;;;;;4975839;28;20493;-77
2024/01/30 08:41:40;;;;;;;74.78;50.70;;;2.70;99.90;;;;;;4959089;28;20023;-76
2024/01/30 08:44:06;;;;;;;71.50;47.70;;;2.90;99.90;;;;;;4970960;28;20032;-75
2024/01/30 08:46:32;;;;;;;89.00;59.35;;;3.10;99.90;;;;;;4968637;28;20027;-75
2024/01/30 08:49:00;;;;;;;77.30;49.38;;;3.10;99.90;;;;;;4962783;28;20058;-75
2024/01/30 08:51:31;;;;;;;58.70;41.28;;;3.20;99.90;;;;;;4976205;28;20033;-75
2024/01/30 08:53:57;;;;;;;63.13;41.13;;;3.30;99.90;;;;;;4963408;28;20422;-76
2024/01/30 08:56:23;;;;;;;54.13;35.85;;;3.30;99.90;;;;;;4975773;28;20027;-74
2024/01/30 08:58:57;;;;;;;52.58;34.00;;;3.50;99.90;;;;;;4943974;28;20509;-74
2024/01/30 09:01:23;;;;;;;50.47;33.58;;;3.50;99.90;;;;;;4937504;28;20033;-74
2024/01/30 09:03:53;;;;;;;48.15;33.60;;;3.60;99.90;;;;;;4975913;28;20030;-75
2024/01/30 09:06:22;;;;;;;57.17;34.13;;;3.70;99.90;;;;;;4942689;28;20023;-75
2024/01/30 09:08:48;;;;;;;53.65;35.13;;;3.90;99.90;;;;;;4940701;28;20023;-74
2024/01/30 09:11:20;;;;;;;61.95;37.35;;;4.00;99.90;;;;;;4964825;28;20155;-76
2024/01/30 09:13:54;;;;;;;45.65;32.05;;;4.00;99.90;;;;;;4942039;28;20510;-75
2024/01/30 09:16:25;;;;;;;51.08;33.72;;;4.00;99.90;;;;;;4943182;28;20047;-74
2024/01/30 09:18:54;;;;;;;51.50;32.47;;;4.10;99.90;;;;;;4958203;28;20027;-75
2024/01/30 09:21:22;;;;;;;46.30;30.90;;;4.00;99.90;;;;;;4973429;28;20058;-75
2024/01/30 09:24:01;;;;;;;49.40;33.67;;;4.10;99.90;;;;;;4974524;28;20426;-75
2024/01/30 09:26:35;;;;;;;44.47;28.83;;;4.30;99.90;;;;;;4942299;28;20490;-76
2024/01/30 09:29:03;;;;;;;49.83;30.50;;;4.50;99.90;;;;;;4941659;28;20117;-75
2024/01/30 09:31:49;;;;;;;44.53;29.42;;;4.60;99.90;;;;;;4941937;28;20117;-74
2024/01/30 09:34:18;;;;;;;44.83;31.02;;;4.70;99.90;;;;;;4941607;28;20162;-75
2024/01/30 09:36:49;;;;;;;48.72;29.25;;;4.30;99.90;;;;;;4975100;28;20471;-74
2024/01/30 09:39:16;;;;;;;43.85;27.48;;;4.60;99.90;;;;;;4941588;28;20035;-75
2024/01/30 09:41:49;;;;;;;43.33;27.23;;;4.70;99.90;;;;;;4957913;28;20476;-77
2024/01/30 09:44:20;;;;;;;41.10;27.88;;;4.80;99.90;;;;;;4941800;28;20085;-74
2024/01/30 09:46:50;;;;;;;44.30;27.88;;;5.00;99.90;;;;;;4974337;28;20033;-74
2024/01/30 09:49:28;;;;;;;41.78;27.40;;;5.10;99.90;;;;;;4974305;28;20656;-74
2024/01/30 09:51:59;;;;;;;38.55;25.20;;;5.20;99.90;;;;;;4940161;28;20030;-74
2024/01/30 09:54:25;;;;;;;40.65;26.05;;;5.10;99.90;;;;;;4975021;28;20038;-74
2024/01/30 09:56:51;;;;;;;42.83;28.30;;;5.10;99.90;;;;;;4941635;28;20027;-73
2024/01/30 09:59:19;;;;;;;42.17;25.55;;;5.00;99.90;;;;;;4974626;28;20475;-74
2024/01/30 10:01:51;;;;;;;43.65;27.23;;;5.20;99.90;;;;;;4940735;28;20069;-74
2024/01/30 10:04:17;;;;;;;47.15;26.65;;;5.30;99.90;;;;;;4966222;28;20403;-73
2024/01/30 10:06:46;;;;;;;43.30;28.48;;;5.30;99.90;;;;;;4941294;28;20019;-73
2024/01/30 10:09:17;;;;;;;37.00;25.55;;;5.40;99.90;;;;;;4939607;28;20031;-73
2024/01/30 10:11:43;;;;;;;45.03;28.83;;;5.40;99.90;;;;;;4956917;28;20031;-73
2024/01/30 10:14:12;;;;;;;47.20;27.80;;;5.50;99.90;;;;;;4941891;28;20027;-73
2024/01/30 10:16:38;;;;;;;41.13;27.85;;;5.60;99.90;;;;;;4974557;28;20158;-75
2024/01/30 10:19:11;;;;;;;42.58;27.88;;;5.70;99.90;;;;;;4974776;28;20121;-73
2024/01/30 10:21:42;;;;;;;39.38;26.20;;;5.70;99.90;;;;;;4938100;29;20023;-74
2024/01/30 10:24:13;;;;;;;38.60;25.23;;;5.80;99.90;;;;;;4968513;28;20027;-74
2024/01/30 10:26:39;;;;;;;44.15;26.33;;;5.90;99.90;;;;;;4941377;28;20146;-74
2024/01/30 10:29:37;;;;;;;41.97;25.40;;;6.00;99.90;;;;;;4956952;28;20023;-75
2024/01/30 10:32:06;;;;;;;32.95;21.95;;;6.00;99.90;;;;;;4861702;29;20041;-74
2024/01/30 10:34:39;;;;;;;40.63;25.13;;;6.10;99.90;;;;;;4865264;29;20089;-76
2024/01/30 10:37:17;;;;;;;39.20;22.58;;;6.10;99.90;;;;;;4877311;29;20045;-74
2024/01/30 10:39:45;;;;;;;38.53;24.60;;;6.30;99.90;;;;;;4846560;29;20075;-74
2024/01/30 10:42:20;;;;;;;33.65;20.65;;;6.30;99.90;;;;;;4876490;29;20099;-73
2024/01/30 10:45:06;;;;;;;34.00;21.35;;;6.30;99.90;;;;;;4846490;29;20081;-74
2024/01/30 10:47:36;;;;;;;31.35;20.30;;;6.50;99.90;;;;;;4846476;29;20036;-74
2024/01/30 10:50:05;;;;;;;30.90;20.85;;;;;;;;;;4845858;29;20080;-76
2024/01/30 10:52:42;;;;;;;35.72;21.40;;;6.40;99.90;;;;;;4846704;29;20048;-74
2024/01/30 10:55:10;;;;;;;58.75;27.38;;;6.50;99.90;;;;;;4876622;29;20029;-74
2024/01/30 10:57:37;;;;;;;42.45;26.23;;;6.50;99.90;;;;;;4846429;29;20040;-73
2024/01/30 11:00:12;;;;;;;36.78;19.95;;;6.50;99.90;;;;;;4845648;29;20057;-73
2024/01/30 11:02:46;;;;;;;30.23;18.92;;;6.70;99.90;;;;;;4877444;29;20083;-73
2024/01/30 11:05:16;;;;;;;29.60;18.60;;;6.80;99.90;;;;;;4845289;29;20025;-74
2024/01/30 11:07:46;;;;;;;28.88;18.15;;;6.80;99.90;;;;;;4834424;29;20030;-74
2024/01/30 11:10:15;;;;;;;;;;;6.60;99.90;;;;;;4944616;28;20486;-74
2024/01/30 11:12:46;;;;;;;26.02;15.77;;;6.70;99.90;;;;;;4974049;28;19965;-74
2024/01/30 11:15:18;;;;;;;27.13;16.10;;;6.90;99.90;;;;;;4969944;28;20035;-75
2024/01/30 11:17:51;;;;;;;27.83;16.53;;;6.90;99.90;;;;;;4958798;28;20023;-74
2024/01/30 11:20:32;;;;;;;;;;;6.90;99.90;;;;;;4932538;28;20652;-74
2024/01/30 11:23:05;;;;;;;28.27;16.55;;;6.90;99.90;;;;;;4940724;28;19910;-72
2024/01/30 11:25:34;;;;;;;30.98;17.90;;;7.00;99.90;;;;;;4930390;29;20122;-73
2024/01/30 11:28:05;;;;;;;26.38;15.75;;;7.00;99.90;;;;;;4962156;28;20023;-76
2024/01/30 11:30:50;;;;;;;27.65;15.85;;;7.10;99.90;;;;;;4979928;28;20034;-74
2024/01/30 11:33:29;;;;;;;22.25;13.23;;;7.10;99.80;;;;;;4941091;28;20027;-74
2024/01/30 11:36:08;;;;;;;22.40;12.98;;;7.20;99.10;;;;;;4962535;28;20023;-73
2024/01/30 11:38:34;;;;;;;21.70;14.02;;;7.20;99.90;;;;;;4947836;28;20042;-75
2024/01/30 11:41:01;;;;;;;26.52;13.25;;;7.10;98.10;;;;;;4957859;28;20023;-74
2024/01/30 11:43:27;;;;;;;19.23;11.50;;;7.30;99.30;;;;;;4960370;28;20036;-75
2024/01/30 11:45:53;;;;;;;20.00;10.98;;;7.40;96.90;;;;;;4979509;28;20574;-75
2024/01/30 11:48:21;;;;;;;21.80;10.32;;;7.50;96.60;;;;;;4976925;28;20023;-74
2024/01/30 11:50:52;;;;;;;16.05;8.73;;;7.50;95.40;;;;;;4971483;28;20051;-74
2024/01/30 11:53:45;;;;;;;13.65;7.88;;;7.50;93.80;;;;;;4946327;29;20023;-76
2024/01/30 11:56:13;;;;;;;21.98;11.32;;;7.60;93.60;;;;;;4940808;28;20126;-74
2024/01/30 11:58:45;;;;;;;14.23;8.25;;;7.60;92.90;;;;;;4970231;28;20065;-74
2024/01/30 12:01:11;;;;;;;23.88;8.13;;;7.60;93.20;;;;;;4928507;29;20493;-74
2024/01/30 12:03:37;;;;;;;16.25;9.05;;;7.60;92.00;;;;;;4937749;28;20134;-74
2024/01/30 12:06:03;;;;;;;17.90;9.40;;;7.70;91.20;;;;;;4943602;28;20114;-75
2024/01/30 12:08:34;;;;;;;18.08;10.88;;;7.70;92.40;;;;;;4976874;28;20030;-74
2024/01/30 12:11:08;;;;;;;25.52;13.60;;;7.60;92.70;;;;;;4979830;28;20035;-74
2024/01/30 12:13:37;;;;;;;25.52;14.00;;;7.70;93.00;;;;;;4936786;29;20054;-74
2024/01/30 12:16:06;;;;;;;23.75;12.02;;;7.70;93.90;;;;;;4960246;28;20046;-75
2024/01/30 12:18:32;;;;;;;27.92;15.32;;;7.70;91.80;;;;;;4959513;28;20494;-73
2024/01/30 12:21:01;;;;;;;22.27;12.70;;;7.80;92.20;;;;;;4958677;28;20065;-74
2024/01/30 12:23:30;;;;;;;18.85;11.15;;;7.80;92.70;;;;;;4943458;28;20118;-73
2024/01/30 12:25:57;;;;;;;17.80;9.23;;;7.70;93.00;;;;;;4952203;28;20091;-73
2024/01/30 12:28:30;;;;;;;19.80;11.70;;;7.60;92.10;;;;;;4986707;28;20109;-74
2024/01/30 12:31:01;;;;;;;20.08;9.07;;;7.50;91.20;;;;;;4979425;28;20035;-76
2024/01/30 12:33:29;;;;;;;19.15;9.43;;;7.50;90.70;;;;;;4970776;28;20023;-78
2024/01/30 12:36:04;;;;;;;20.20;10.35;;;7.60;92.60;;;;;;4951635;28;20030;-75
2024/01/30 12:38:35;;;;;;;17.38;9.13;;;7.50;90.70;;;;;;4986094;28;20023;-73
2024/01/30 12:41:07;;;;;;;25.88;13.48;;;7.50;90.70;;;;;;4951151;28;20026;-74
2024/01/30 12:43:34;;;;;;;20.45;10.43;;;7.50;91.20;;;;;;4989768;28;20378;-74
2024/01/30 12:46:03;;;;;;;37.08;17.95;;;7.50;91.00;;;;;;4976328;28;20027;-80
2024/01/30 12:48:41;;;;;;;20.60;11.02;;;7.60;91.90;;;;;;4944156;28;20042;-77
2024/01/30 12:51:09;;;;;;;25.02;11.55;;;7.60;91.30;;;;;;4950947;28;20038;-73
2024/01/30 12:53:37;;;;;;;37.65;17.73;;;7.60;90.60;;;;;;4960458;28;20027;-73
2024/01/30 12:56:11;;;;;;;24.45;10.48;;;7.60;90.60;;;;;;4982445;28;20060;-73
2024/01/30 12:58:39;;;;;;;14.77;7.68;;;7.50;89.60;;;;;;4940550;28;20042;-72
2024/01/30 13:01:11;;;;;;;15.10;7.63;;;7.50;88.60;;;;;;4976068;28;20027;-76
2024/01/30 13:03:40;;;;;;;16.35;7.97;;;7.50;87.40;;;;;;4958704;28;20035;-75
2024/01/30 13:06:08;;;;;;;18.40;8.63;;;7.50;85.70;;;;;;4945989;28;20027;-73
2024/01/30 13:08:37;;;;;;;29.33;14.02;;;7.50;86.30;;;;;;4937931;28;20478;-74
2024/01/30 13:11:03;;;;;;;16.02;8.50;;;7.50;88.30;;;;;;4942633;28;20153;-73
2024/01/30 13:13:31;;;;;;;21.20;10.68;;;7.50;86.50;;;;;;4933002;28;20109;-73
2024/01/30 13:16:04;;;;;;;18.92;9.52;;;7.60;87.20;;;;;;4974852;28;20074;-74
2024/01/30 13:18:30;;;;;;;17.80;7.85;;;7.50;84.60;;;;;;4937839;28;20042;-74
2024/01/30 13:20:56;;;;;;;19.70;9.02;;;7.60;85.70;;;;;;4956394;28;20092;-74
2024/01/30 13:23:24;;;;;;;17.65;5.93;;;7.60;86.60;;;;;;4972678;28;20046;-74
2024/01/30 13:26:02;;;;;;;17.98;6.70;;;7.60;83.40;;;;;;4936123;28;20027;-74
2024/01/30 13:28:39;;;;;;;17.73;8.00;;;7.50;84.00;;;;;;4936618;28;20085;-73